Pagrindinis puslapis
METAR-TAF:

METAR-TAF

Oro uostai :

Saint-Pierre, Reunjonas

platuma: 21-20S, ilguma: 055-29E, Aukštis: 52 m

Dabartinis oras

Ataskaita buvo paskelbta 45 minutes, ne 04:30 UTC
Vėjas 6 kt iš Rytų/Šiaurės Rytų
Temperatūra 24°C
Drėgmė 54%
Slėgis 1017 hPa
Matomumas 10 km arba daugiau
nėra debesų žemiau 1500 m ir nėra kamuolinių lietaus debesų

METAR: FMEP 140430Z AUTO 06006KT CAVOK 24/14 Q1017 BECMG 22010KT

Laikas: 09:15 (05:15 UTC)

Prognozė

Ataskaita buvo paskelbta 3 valandos ir 15 minutes, ne 02:00 UTC
Prognozė galioja nuo 14 metu 03 UTC su 14 metu 12 UTC
Vėjas 5 kt iš Šiaurės/Šiaurės Rytų
Matomumas 10 km arba daugiau
Išsisklaidę debesys ne aukštis 9000 ft
Tapsmas
nuo 14 metu 04 UTC su 14 metu 06 UTC
Vėjas 10 kt iš Pietvakarių

TAF: FMEP 140200Z 1403/1412 03005KT 9999 SCT090 BECMG 1404/1406 22010KT

Orai ataskaitas ir orų prognozės (METAR, TAF).

turimą stotys yra geltonos ir raudonos taškus žemėlapyje.

Perkelti pele per norėdami pamatyti stoties vardą.

Tada spustelėkite, norėdami matyti oro stebėjimo ir prognozės.

Norėdami pakeisti žemėlapį: spustelėkite ant žalios mygtukų su juodo kryžiaus žemyn,; žalią mygtuką su brūkšneliu, jei norite nutolinti; arba žalių rodyklių gretimoms žemėlapius.


METAR-TAF: